createdAt,value
2019-05-09T00:01:04.007Z,11.80
2019-05-09T00:03:33.519Z,12.90
2019-05-09T00:06:04.431Z,12.25
2019-05-09T00:08:33.539Z,12.80
2019-05-09T00:11:03.696Z,12.47
2019-05-09T00:13:34.132Z,15.00
2019-05-09T00:16:03.641Z,13.35
2019-05-09T00:18:33.624Z,14.20
2019-05-09T00:21:06.624Z,12.50
2019-05-09T00:23:35.066Z,15.35
2019-05-09T00:26:04.277Z,13.38
2019-05-09T00:28:36.116Z,14.65
2019-05-09T00:31:06.323Z,14.38
2019-05-09T00:33:34.758Z,14.43
2019-05-09T00:36:04.150Z,14.23
2019-05-09T00:38:45.829Z,14.38
2019-05-09T00:41:14.811Z,13.93
2019-05-09T00:43:44.889Z,13.93
2019-05-09T00:46:14.979Z,11.40
2019-05-09T00:48:53.302Z,13.45
2019-05-09T00:51:23.267Z,12.03
2019-05-09T00:53:53.653Z,9.80
2019-05-09T00:56:24.027Z,9.43
2019-05-09T00:58:53.516Z,9.15
2019-05-09T01:01:23.968Z,8.13
2019-05-09T01:03:53.512Z,8.08
2019-05-09T01:06:24.032Z,8.00
2019-05-09T01:08:53.620Z,6.65
2019-05-09T01:11:24.261Z,6.75
2019-05-09T01:13:54.250Z,7.30
2019-05-09T01:16:24.156Z,6.42
2019-05-09T01:18:54.454Z,6.53
2019-05-09T01:21:24.066Z,6.45
2019-05-09T01:23:53.938Z,6.28
2019-05-09T01:26:23.947Z,6.05
2019-05-09T01:28:53.790Z,5.08
2019-05-09T01:31:23.995Z,4.75
2019-05-09T01:33:54.786Z,4.83
2019-05-09T01:36:23.579Z,5.42
2019-05-09T01:38:53.983Z,4.90
2019-05-09T01:41:29.149Z,5.15
2019-05-09T01:43:53.679Z,5.22
2019-05-09T01:46:23.585Z,5.10
2019-05-09T01:48:53.923Z,4.58
2019-05-09T01:51:23.375Z,3.98
2019-05-09T01:53:53.698Z,5.40
2019-05-09T01:56:23.517Z,4.95
2019-05-09T01:58:53.867Z,5.37
2019-05-09T02:01:24.018Z,5.65
2019-05-09T02:03:53.639Z,5.42
2019-05-09T02:06:24.409Z,6.30
2019-05-09T02:08:54.471Z,6.42
2019-05-09T02:11:23.835Z,7.40
2019-05-09T02:13:53.563Z,7.55
2019-05-09T02:16:23.858Z,7.10
2019-05-09T02:18:53.954Z,8.40
2019-05-09T02:21:23.993Z,7.33
2019-05-09T02:23:53.671Z,8.15
2019-05-09T02:26:24.049Z,7.80
2019-05-09T02:28:53.876Z,8.35
2019-05-09T02:31:24.581Z,7.67
2019-05-09T02:33:54.219Z,7.70
2019-05-09T02:36:23.047Z,7.92
2019-05-09T02:38:51.484Z,8.18
2019-05-09T02:41:20.138Z,7.67
2019-05-09T02:43:49.827Z,6.80
2019-05-09T02:46:32.277Z,7.05
2019-05-09T02:49:00.730Z,7.35
2019-05-09T02:51:29.588Z,7.08
2019-05-09T02:53:58.674Z,8.50
2019-05-09T02:56:29.468Z,7.25
2019-05-09T02:59:02.811Z,7.50
2019-05-09T03:04:03.646Z,7.50
2019-05-09T03:06:32.082Z,9.33
2019-05-09T03:09:00.611Z,8.75
2019-05-09T03:11:29.204Z,9.55
2019-05-09T03:13:58.770Z,8.90
2019-05-09T03:16:29.319Z,8.95
2019-05-09T03:18:58.811Z,7.97
2019-05-09T03:21:30.054Z,9.45
2019-05-09T03:23:59.373Z,10.75
2019-05-09T03:26:30.089Z,11.15
2019-05-09T03:29:19.032Z,11.05
2019-05-09T03:31:50.062Z,10.20
2019-05-09T03:34:19.550Z,12.03
2019-05-09T03:36:47.799Z,11.25
2019-05-09T03:39:18.369Z,12.03
2019-05-09T03:41:48.749Z,10.55
2019-05-09T03:44:17.838Z,12.05
2019-05-09T03:47:03.851Z,11.18
2019-05-09T03:49:32.282Z,9.90
2019-05-09T03:52:00.737Z,11.73
2019-05-09T03:54:29.181Z,10.80
2019-05-09T03:57:08.278Z,11.57
2019-05-09T03:59:38.080Z,12.82
2019-05-09T04:02:09.903Z,9.95
2019-05-09T04:04:38.384Z,11.00
2019-05-09T04:07:08.394Z,12.20
2019-05-09T04:09:37.766Z,12.03
2019-05-09T04:12:07.667Z,12.60
2019-05-09T04:14:37.655Z,13.75
2019-05-09T04:17:07.877Z,12.73
2019-05-09T04:19:38.088Z,14.40
2019-05-09T04:22:08.067Z,13.62
2019-05-09T04:24:38.265Z,14.13
2019-05-09T04:27:11.465Z,14.73
2019-05-09T04:32:08.051Z,15.15
2019-05-09T04:34:38.038Z,14.03
2019-05-09T04:37:08.095Z,14.33
2019-05-09T04:39:38.698Z,16.02
2019-05-09T04:42:08.405Z,17.50
2019-05-09T04:44:41.557Z,16.85
2019-05-09T04:47:10.251Z,18.02
2019-05-09T04:49:41.154Z,16.97
2019-05-09T04:52:09.142Z,17.05
2019-05-09T04:54:38.447Z,18.45
2019-05-09T04:57:07.746Z,16.05
2019-05-09T04:59:37.355Z,16.35
2019-05-09T05:02:24.171Z,17.32
2019-05-09T05:04:53.019Z,16.20
2019-05-09T05:07:21.647Z,17.50
2019-05-09T05:09:50.207Z,17.48
2019-05-09T05:12:18.841Z,16.73
2019-05-09T05:14:47.662Z,14.93
2019-05-09T05:17:17.956Z,14.28
2019-05-09T05:19:47.789Z,16.40
2019-05-09T05:22:18.322Z,13.95
2019-05-09T05:24:48.929Z,15.80
2019-05-09T05:27:18.833Z,15.85
2019-05-09T05:29:47.788Z,14.50
2019-05-09T05:32:18.005Z,14.23
2019-05-09T05:35:07.564Z,14.38
2019-05-09T05:37:38.555Z,15.03
2019-05-09T05:40:07.785Z,12.47
2019-05-09T05:42:38.917Z,11.53
2019-05-09T05:45:08.819Z,12.50
2019-05-09T05:47:42.353Z,12.18
2019-05-09T05:50:10.888Z,11.85
2019-05-09T05:52:40.260Z,11.57
2019-05-09T05:55:09.051Z,11.22
2019-05-09T05:57:38.612Z,10.68
2019-05-09T06:00:08.869Z,9.70
2019-05-09T06:02:38.528Z,9.38
2019-05-09T06:05:08.447Z,9.45
2019-05-09T06:07:43.204Z,10.25
2019-05-09T06:10:12.136Z,10.20
2019-05-09T06:12:40.943Z,9.38
2019-05-09T06:15:09.926Z,10.53
2019-05-09T06:17:38.636Z,11.15
2019-05-09T06:20:08.901Z,11.35
2019-05-09T06:22:38.291Z,9.05
2019-05-09T06:25:09.835Z,9.65
2019-05-09T06:27:37.627Z,9.60
2019-05-09T06:30:08.683Z,8.53
2019-05-09T06:32:38.496Z,8.50
2019-05-09T06:35:08.404Z,8.63
2019-05-09T06:37:38.264Z,7.60
2019-05-09T06:40:08.091Z,6.70
2019-05-09T06:42:38.146Z,7.03
2019-05-09T06:45:24.602Z,5.33
2019-05-09T06:47:53.058Z,5.85
2019-05-09T06:50:21.763Z,5.25
2019-05-09T06:52:50.238Z,5.40
2019-05-09T06:55:18.682Z,4.97
2019-05-09T06:57:48.941Z,5.60
2019-05-09T07:00:53.595Z,6.62
2019-05-09T07:03:23.713Z,6.55
2019-05-09T07:05:53.792Z,4.47
2019-05-09T07:08:23.978Z,6.60
2019-05-09T07:10:52.438Z,6.03
2019-05-09T07:13:20.886Z,6.00
2019-05-09T07:15:49.615Z,3.85
2019-05-09T07:18:18.428Z,4.87
2019-05-09T07:20:48.301Z,4.00
2019-05-09T07:23:17.779Z,4.03
2019-05-09T07:26:04.248Z,3.20
2019-05-09T07:28:32.680Z,3.08
2019-05-09T07:31:07.536Z,3.55
2019-05-09T07:33:38.342Z,3.42
2019-05-09T07:36:08.552Z,4.00
2019-05-09T07:38:38.410Z,3.50
2019-05-09T07:41:08.855Z,4.08
2019-05-09T07:43:38.449Z,3.40
2019-05-09T07:46:09.124Z,3.42
2019-05-09T07:48:38.657Z,3.40
2019-05-09T07:51:07.786Z,4.10
2019-05-09T07:53:37.986Z,3.70
2019-05-09T07:56:08.010Z,4.50
2019-05-09T07:58:37.750Z,3.62
2019-05-09T08:01:08.600Z,3.98
2019-05-09T08:03:38.444Z,3.50
2019-05-09T08:06:08.716Z,3.87
2019-05-09T08:08:38.456Z,3.12
2019-05-09T08:11:08.921Z,3.00
2019-05-09T08:13:39.334Z,2.87
2019-05-09T08:16:12.399Z,2.83
2019-05-09T08:18:37.856Z,2.80
2019-05-09T08:21:08.350Z,2.95
2019-05-09T08:23:37.963Z,2.55
2019-05-09T08:26:08.816Z,3.25
2019-05-09T08:28:38.880Z,2.60
2019-05-09T08:31:08.459Z,2.70
2019-05-09T08:33:38.127Z,3.60
2019-05-09T08:36:08.635Z,2.45
2019-05-09T08:38:39.053Z,2.30
2019-05-09T08:41:12.440Z,2.80
2019-05-09T08:43:41.283Z,2.12
2019-05-09T08:46:10.370Z,2.75
2019-05-09T08:48:38.847Z,2.25
2019-05-09T08:51:09.105Z,2.70
2019-05-09T08:53:38.094Z,3.00
2019-05-09T08:56:09.006Z,2.30
2019-05-09T08:58:38.217Z,2.50
2019-05-09T09:01:09.682Z,2.20
2019-05-09T09:03:37.706Z,3.10
2019-05-09T09:06:08.284Z,3.12
2019-05-09T09:08:37.937Z,3.25
2019-05-09T09:11:08.586Z,3.12
2019-05-09T09:13:37.784Z,2.70
2019-05-09T09:16:15.739Z,2.80
2019-05-09T09:18:38.757Z,2.62
2019-05-09T09:21:08.065Z,2.70
2019-05-09T09:23:43.907Z,2.75
2019-05-09T09:26:08.074Z,2.67
2019-05-09T09:28:37.953Z,3.10
2019-05-09T09:31:08.134Z,4.03
2019-05-09T09:33:37.624Z,3.08
2019-05-09T09:36:08.658Z,2.92
2019-05-09T09:38:37.549Z,3.40
2019-05-09T09:41:07.761Z,2.70
2019-05-09T09:43:38.411Z,4.60
2019-05-09T09:46:13.998Z,3.33
2019-05-09T09:48:38.843Z,2.70
2019-05-09T09:51:08.176Z,2.77
2019-05-09T09:53:38.485Z,2.80
2019-05-09T09:56:08.667Z,3.10
2019-05-09T09:58:37.915Z,2.80
2019-05-09T10:01:23.547Z,3.00
2019-05-09T10:03:53.642Z,2.70
2019-05-09T10:06:22.101Z,3.00
2019-05-09T10:08:50.607Z,2.72
2019-05-09T10:11:19.431Z,2.90
2019-05-09T10:13:51.542Z,2.77
2019-05-09T10:16:32.424Z,2.52
2019-05-09T10:19:03.907Z,2.25
2019-05-09T10:21:38.250Z,2.20
2019-05-09T10:24:07.965Z,2.00
2019-05-09T10:26:39.005Z,2.08
2019-05-09T10:29:07.593Z,2.15
2019-05-09T10:31:39.049Z,2.22
2019-05-09T10:34:06.470Z,2.17
2019-05-09T10:36:34.916Z,1.90
2019-05-09T10:39:05.240Z,2.15
2019-05-09T10:41:33.700Z,2.52
2019-05-09T10:44:08.320Z,2.33
2019-05-09T10:46:52.092Z,2.47
2019-05-09T10:49:09.700Z,2.10
2019-05-09T10:51:38.144Z,2.10
2019-05-09T10:54:08.085Z,2.33
2019-05-09T10:56:38.365Z,1.67
2019-05-09T10:59:07.897Z,1.98
2019-05-09T11:01:38.101Z,1.72
2019-05-09T11:04:08.215Z,2.17
2019-05-09T11:06:38.298Z,1.77
2019-05-09T11:09:09.520Z,2.02
2019-05-09T11:11:38.051Z,2.30
2019-05-09T11:14:08.615Z,1.90
2019-05-09T11:16:45.434Z,1.80
2019-05-09T11:19:08.196Z,1.82
2019-05-09T11:21:39.123Z,1.77
2019-05-09T11:24:08.389Z,1.62
2019-05-09T11:26:39.534Z,1.45
2019-05-09T11:29:08.094Z,2.00
2019-05-09T11:31:38.392Z,1.90
2019-05-09T11:34:08.936Z,1.87
2019-05-09T11:36:38.100Z,1.50
2019-05-09T11:39:10.656Z,1.62
2019-05-09T11:41:38.542Z,1.50
2019-05-09T11:44:08.583Z,2.08
2019-05-09T11:46:38.218Z,1.65
2019-05-09T11:49:08.374Z,1.30
2019-05-09T11:51:37.157Z,1.22
2019-05-09T11:54:05.626Z,1.35
2019-05-09T11:56:34.131Z,1.77
2019-05-09T11:59:02.596Z,1.20
2019-05-09T12:01:31.065Z,1.50
2019-05-09T12:03:59.517Z,1.55
2019-05-09T12:06:29.142Z,1.25
2019-05-09T12:08:58.802Z,1.20
2019-05-09T12:11:27.623Z,1.45
2019-05-09T12:13:58.151Z,1.37
2019-05-09T12:16:27.924Z,1.60
2019-05-09T12:18:58.424Z,1.57
2019-05-09T12:21:28.184Z,1.30
2019-05-09T12:23:58.308Z,1.22
2019-05-09T12:26:29.095Z,1.30
2019-05-09T12:28:57.969Z,1.47
2019-05-09T12:31:28.870Z,1.30
2019-05-09T12:33:59.135Z,1.50
2019-05-09T12:36:28.637Z,1.60
2019-05-09T12:38:59.186Z,1.60
2019-05-09T12:41:31.593Z,1.98
2019-05-09T12:43:58.031Z,1.50
2019-05-09T12:46:28.390Z,0.98
2019-05-09T12:48:59.206Z,1.80
2019-05-09T12:51:28.127Z,1.55
2019-05-09T12:53:57.863Z,1.40
2019-05-09T12:56:28.483Z,1.50
2019-05-09T12:58:57.899Z,1.45
2019-05-09T13:01:28.143Z,1.40
2019-05-09T13:03:58.328Z,1.32
2019-05-09T13:06:29.552Z,1.27
2019-05-09T13:08:58.689Z,1.27
2019-05-09T13:11:27.939Z,1.20
2019-05-09T13:13:56.693Z,1.10
2019-05-09T13:16:43.440Z,1.50
2019-05-09T13:19:02.309Z,1.80
2019-05-09T13:21:32.548Z,1.40
2019-05-09T13:23:59.365Z,1.20
2019-05-09T13:26:28.863Z,1.72
2019-05-09T13:28:58.879Z,1.17
2019-05-09T13:31:29.341Z,1.30
2019-05-09T13:33:58.478Z,1.20
2019-05-09T13:36:28.433Z,1.10
2019-05-09T13:39:04.434Z,1.20
2019-05-09T13:41:27.850Z,1.47
2019-05-09T13:43:59.071Z,1.30
2019-05-09T13:46:45.817Z,1.60
2019-05-09T13:49:15.737Z,1.12
2019-05-09T13:51:50.830Z,1.40
2019-05-09T13:54:14.560Z,2.20
2019-05-09T13:56:43.021Z,1.42
2019-05-09T13:59:11.465Z,1.17
2019-05-09T14:01:40.267Z,1.37
2019-05-09T14:04:08.710Z,1.50
2019-05-09T14:06:38.734Z,1.50
2019-05-09T14:09:10.558Z,1.35
2019-05-09T14:11:39.328Z,1.50
2019-05-09T14:14:08.080Z,1.27
2019-05-09T14:16:38.846Z,1.67
2019-05-09T14:19:25.974Z,1.20
2019-05-09T14:21:37.887Z,1.37
2019-05-09T14:24:14.240Z,1.60
2019-05-09T14:26:36.511Z,1.37
2019-05-09T14:29:05.313Z,1.47
2019-05-09T14:31:33.806Z,1.32
2019-05-09T14:34:02.274Z,1.35
2019-05-09T14:36:31.481Z,1.50
2019-05-09T14:39:00.259Z,1.47
2019-05-09T14:41:28.694Z,2.30
2019-05-09T14:43:59.619Z,1.22
2019-05-09T14:46:28.458Z,1.50
2019-05-09T14:48:58.379Z,1.40
2019-05-09T14:51:28.405Z,1.20
2019-05-09T14:53:59.492Z,1.52
2019-05-09T14:56:27.957Z,1.27
2019-05-09T14:58:58.117Z,1.30
2019-05-09T15:01:28.743Z,1.40
2019-05-09T15:03:58.618Z,1.47
2019-05-09T15:06:28.284Z,1.42
2019-05-09T15:08:58.132Z,1.30
2019-05-09T15:11:28.242Z,1.70
2019-05-09T15:13:58.491Z,1.52
2019-05-09T15:16:28.233Z,1.67
2019-05-09T15:18:58.379Z,1.65
2019-05-09T15:21:27.163Z,1.30
2019-05-09T15:23:55.589Z,1.20
2019-05-09T15:26:24.077Z,1.40
2019-05-09T15:28:52.525Z,1.60
2019-05-09T15:31:20.958Z,1.70
2019-05-09T15:33:49.425Z,1.12
2019-05-09T15:36:19.201Z,1.30
2019-05-09T15:38:48.752Z,1.42
2019-05-09T15:41:18.373Z,1.15
2019-05-09T15:43:48.580Z,1.60
2019-05-09T15:46:21.989Z,1.10
2019-05-09T15:48:50.704Z,1.25
2019-05-09T15:51:19.209Z,1.25
2019-05-09T15:53:48.646Z,1.32
2019-05-09T15:56:18.809Z,1.37
2019-05-09T15:58:48.997Z,1.57
2019-05-09T16:01:18.486Z,1.30
2019-05-09T16:03:48.586Z,1.22
2019-05-09T16:06:19.204Z,1.35
2019-05-09T16:08:47.515Z,1.62
2019-05-09T16:11:18.040Z,1.20
2019-05-09T16:13:47.981Z,1.60
2019-05-09T16:16:17.546Z,1.47
2019-05-09T16:18:48.572Z,1.42
2019-05-09T16:21:16.955Z,1.50
2019-05-09T16:23:45.448Z,1.35
2019-05-09T16:26:14.343Z,1.30
2019-05-09T16:28:43.043Z,1.27
2019-05-09T16:31:11.506Z,1.40
2019-05-09T16:33:40.251Z,1.30
2019-05-09T16:36:09.086Z,1.50
2019-05-09T16:38:43.446Z,1.37
2019-05-09T16:41:08.244Z,1.12
2019-05-09T16:43:39.154Z,1.22
2019-05-09T16:46:07.661Z,1.05
2019-05-09T16:48:36.202Z,1.25
2019-05-09T16:51:04.714Z,1.10
2019-05-09T16:53:33.546Z,1.77
2019-05-09T16:56:02.350Z,1.20
2019-05-09T16:58:30.804Z,1.10
2019-05-09T17:00:59.591Z,1.30
2019-05-09T17:03:28.440Z,1.22
2019-05-09T17:05:58.263Z,1.17
2019-05-09T17:08:28.268Z,1.05
2019-05-09T17:10:58.633Z,1.12
2019-05-09T17:13:28.887Z,1.00
2019-05-09T17:15:57.315Z,0.95
2019-05-09T17:18:28.121Z,1.02
2019-05-09T17:21:18.438Z,1.22
2019-05-09T17:23:45.139Z,1.05
2019-05-09T17:26:17.434Z,1.00
2019-05-09T17:28:43.786Z,1.25
2019-05-09T17:31:12.625Z,0.85
2019-05-09T17:33:41.168Z,0.62
2019-05-09T17:36:09.592Z,1.12
2019-05-09T17:38:38.470Z,1.65
2019-05-09T17:41:08.247Z,2.30
2019-05-09T17:43:38.340Z,1.25
2019-05-09T17:46:07.691Z,1.30
2019-05-09T17:48:38.579Z,1.00
2019-05-09T17:51:08.447Z,1.00
2019-05-09T17:53:37.320Z,0.70
2019-05-09T17:56:10.552Z,1.05
2019-05-09T17:58:37.995Z,0.98
2019-05-09T18:01:07.830Z,0.82
2019-05-09T18:03:38.461Z,1.12
2019-05-09T18:06:08.267Z,0.70
2019-05-09T18:08:37.719Z,0.90
2019-05-09T18:11:08.697Z,1.07
2019-05-09T18:13:38.604Z,0.90
2019-05-09T18:16:07.106Z,1.10
2019-05-09T18:18:38.669Z,0.90
2019-05-09T18:21:08.334Z,1.30
2019-05-09T18:23:38.656Z,1.30
2019-05-09T18:26:07.926Z,1.27
2019-05-09T18:28:38.539Z,1.00
2019-05-09T18:31:08.025Z,1.27
2019-05-09T18:33:38.510Z,1.17
2019-05-09T18:36:06.938Z,1.20
2019-05-09T18:38:35.385Z,1.00
2019-05-09T18:41:07.044Z,1.20
2019-05-09T18:43:34.058Z,0.80
2019-05-09T18:46:02.746Z,0.85
2019-05-09T18:48:31.417Z,0.88
2019-05-09T18:50:59.857Z,0.90
2019-05-09T18:53:28.301Z,1.20
2019-05-09T18:55:56.748Z,1.02
2019-05-09T18:58:25.509Z,1.00
2019-05-09T19:00:54.395Z,1.30
2019-05-09T19:03:23.114Z,1.00
2019-05-09T19:05:51.561Z,1.07
2019-05-09T19:08:20.001Z,1.02
2019-05-09T19:10:51.943Z,1.20
2019-05-09T19:13:18.624Z,1.00
2019-05-09T19:15:51.698Z,1.17
2019-05-09T19:18:25.421Z,1.10
2019-05-09T19:21:10.628Z,1.12
2019-05-09T19:23:39.064Z,1.30
2019-05-09T19:26:09.131Z,1.30
2019-05-09T19:28:37.898Z,1.00
2019-05-09T19:31:06.674Z,1.42
2019-05-09T19:33:35.189Z,1.00
2019-05-09T19:36:03.654Z,1.10
2019-05-09T19:38:32.153Z,0.82
2019-05-09T19:41:00.608Z,1.15
2019-05-09T19:43:29.121Z,1.05
2019-05-09T19:45:57.829Z,0.90
2019-05-09T19:48:26.277Z,0.80
2019-05-09T19:50:55.047Z,1.10
2019-05-09T19:53:23.755Z,1.35
2019-05-09T19:55:52.447Z,1.45
2019-05-09T19:58:20.906Z,1.30
2019-05-09T20:00:49.334Z,1.15
2019-05-09T20:03:18.176Z,1.40
2019-05-09T20:05:46.625Z,1.27
2019-05-09T20:08:15.321Z,1.40
2019-05-09T20:10:48.199Z,1.15
2019-05-09T20:16:02.616Z,1.40
2019-05-09T20:18:31.075Z,1.30
2019-05-09T20:21:00.061Z,1.70
2019-05-09T20:23:28.948Z,1.20
2019-05-09T20:25:57.984Z,1.45
2019-05-09T20:28:26.433Z,1.52
2019-05-09T20:30:55.023Z,1.30
2019-05-09T20:33:23.822Z,1.42
2019-05-09T20:35:52.994Z,1.20
2019-05-09T20:38:21.732Z,1.70
2019-05-09T20:40:50.675Z,1.35
2019-05-09T20:43:19.317Z,1.47
2019-05-09T20:45:48.270Z,1.30
2019-05-09T20:48:17.388Z,1.60
2019-05-09T20:50:46.030Z,1.47
2019-05-09T20:53:14.910Z,1.60
2019-05-09T20:55:43.890Z,1.35
2019-05-09T20:58:12.814Z,1.52
2019-05-09T21:00:41.441Z,1.95
2019-05-09T21:03:10.062Z,1.30
2019-05-09T21:05:38.949Z,1.35
2019-05-09T21:08:07.577Z,1.50
2019-05-09T21:10:36.529Z,1.30
2019-05-09T21:13:05.147Z,1.65
2019-05-09T21:15:33.785Z,1.52
2019-05-09T21:18:02.419Z,1.15
2019-05-09T21:20:31.111Z,1.50
2019-05-09T21:23:00.005Z,1.45
2019-05-09T21:25:32.776Z,1.35
2019-05-09T21:27:59.330Z,1.40
2019-05-09T21:30:28.294Z,1.40
2019-05-09T21:32:56.908Z,1.30
2019-05-09T21:35:25.358Z,1.55
2019-05-09T21:37:54.073Z,1.42
2019-05-09T21:40:22.547Z,1.07
2019-05-09T21:42:50.993Z,1.52
2019-05-09T21:45:19.516Z,1.10
2019-05-09T21:47:47.976Z,1.50
2019-05-09T21:50:16.490Z,1.30
2019-05-09T21:52:45.199Z,1.35
2019-05-09T21:55:13.950Z,1.40
2019-05-09T21:57:42.395Z,1.70
2019-05-09T22:00:14.142Z,1.60
2019-05-09T22:02:42.851Z,1.40
2019-05-09T22:05:11.633Z,1.70
2019-05-09T22:07:40.433Z,1.25
2019-05-09T22:10:09.270Z,1.50
2019-05-09T22:12:37.713Z,1.35
2019-05-09T22:15:06.899Z,1.35
2019-05-09T22:17:41.471Z,1.45
2019-05-09T22:20:13.239Z,1.40
2019-05-09T22:22:41.990Z,1.40
2019-05-09T22:25:10.867Z,1.52
2019-05-09T22:27:39.432Z,1.27
2019-05-09T22:30:09.550Z,1.60
2019-05-09T22:32:38.048Z,1.30
2019-05-09T22:35:08.539Z,1.85
2019-05-09T22:37:37.449Z,1.30
2019-05-09T22:40:06.968Z,1.50
2019-05-09T22:42:35.590Z,1.50
2019-05-09T22:45:06.026Z,2.10
2019-05-09T22:47:34.490Z,1.90
2019-05-09T22:50:03.239Z,1.62
2019-05-09T22:52:31.938Z,1.72
2019-05-09T22:55:00.371Z,1.70
2019-05-09T22:57:28.815Z,1.60
2019-05-09T22:59:57.267Z,1.60
2019-05-09T23:02:25.693Z,1.70
2019-05-09T23:04:54.157Z,2.05
2019-05-09T23:07:22.588Z,1.60
2019-05-09T23:09:51.024Z,1.60
2019-05-09T23:12:19.476Z,2.00
2019-05-09T23:14:47.949Z,1.67
2019-05-09T23:17:19.442Z,1.70
2019-05-09T23:19:47.874Z,1.52
2019-05-09T23:22:18.396Z,1.60
2019-05-09T23:24:46.886Z,1.72
2019-05-09T23:27:16.973Z,1.62
2019-05-09T23:29:47.678Z,1.30
2019-05-09T23:32:23.753Z,1.65
2019-05-09T23:34:52.176Z,1.80
2019-05-09T23:37:20.615Z,1.65
2019-05-09T23:39:53.089Z,1.60
2019-05-09T23:42:21.785Z,1.77
2019-05-09T23:44:50.225Z,2.02
2019-05-09T23:47:18.666Z,1.90
2019-05-09T23:49:47.401Z,1.87
2019-05-09T23:52:16.425Z,2.10
2019-05-09T23:55:03.061Z,1.72
2019-05-09T23:57:49.597Z,2.05
